Time;durP1;ratioP1;P1;durP2;ratioP2;P2;SDS_P1;SDS_P2;PMS_P1;PMS_P2;Temp;Humidity;BMP_temperature;BMP_pressure;BME280_temperature;BME280_humidity;BME280_pressure;Samples;Min_cycle;Max_cycle;Signal;HPM_P1;HPM_P2
2021/05/19 00:00:16;;;;;;;18.40;7.78;;;;;;;8.32;78.47;100002.38;5106717;28;20032;-64
2021/05/19 00:02:42;;;;;;;13.93;8.00;;;;;;;8.32;78.65;100004.97;5106756;28;20039;-64
2021/05/19 00:05:07;;;;;;;12.40;7.45;;;;;;;8.36;78.38;99998.91;5106744;28;20020;-64
2021/05/19 00:07:33;;;;;;;17.50;7.75;;;;;;;8.36;78.32;99996.31;5106706;28;20084;-64
2021/05/19 00:09:58;;;;;;;24.23;8.40;;;;;;;8.36;78.44;99992.84;5106676;28;20046;-64
2021/05/19 00:12:24;;;;;;;15.43;7.30;;;;;;;8.30;78.72;99992.03;5105085;28;20016;-64
2021/05/19 00:14:49;;;;;;;15.50;7.22;;;;;;;8.29;78.75;99995.47;5106170;28;20045;-64
2021/05/19 00:17:15;;;;;;;14.70;8.32;;;;;;;8.29;78.67;99997.22;5106312;28;20027;-64
2021/05/19 00:19:40;;;;;;;15.05;8.15;;;;;;;8.33;78.90;100000.63;5105999;28;20361;-65
2021/05/19 00:22:05;;;;;;;17.23;7.30;;;;;;;8.34;78.82;100000.63;5106015;28;20024;-64
2021/05/19 00:24:31;;;;;;;14.85;8.85;;;;;;;8.35;78.63;100001.50;5106064;28;20025;-64
2021/05/19 00:26:56;;;;;;;15.57;7.70;;;;;;;8.36;78.73;100004.06;5106003;28;20024;-64
2021/05/19 00:29:22;;;;;;;19.05;8.10;;;;;;;8.37;78.59;100000.59;5105960;28;20388;-64
2021/05/19 00:31:47;;;;;;;18.45;7.65;;;;;;;8.40;78.69;100004.91;5106017;28;20024;-64
2021/05/19 00:34:15;;;;;;;18.85;7.70;;;;;;;8.40;78.81;100002.34;5105031;28;20020;-64
2021/05/19 00:36:41;;;;;;;21.13;7.70;;;;;;;8.41;78.62;99998.88;5105804;28;20024;-64
2021/05/19 00:39:08;;;;;;;16.55;7.68;;;;;;;8.40;78.76;100005.75;5105800;28;20024;-64
2021/05/19 00:41:34;;;;;;;21.20;7.68;;;;;;;8.40;78.71;99989.41;5121476;28;20020;-64
2021/05/19 00:44:08;;;;;;;17.98;7.72;;;;;;;8.47;78.66;100000.53;5121362;28;20075;-64
2021/05/19 00:46:34;;;;;;;36.40;8.05;;;;;;;8.49;78.74;100004.00;5105682;28;20028;-64
2021/05/19 00:49:00;;;;;;;16.42;7.00;;;;;;;8.49;78.65;99998.81;5103954;28;20046;-64
2021/05/19 00:51:26;;;;;;;14.63;7.72;;;;;;;8.51;78.65;99997.97;5105352;28;20496;-65
2021/05/19 00:53:52;;;;;;;20.27;7.63;;;;;;;8.55;78.57;99993.63;5103953;28;20031;-64
2021/05/19 00:56:18;;;;;;;13.10;7.30;;;;;;;8.56;78.62;99992.78;5105466;28;20043;-65
2021/05/19 00:58:44;;;;;;;16.30;7.85;;;;;;;8.58;78.63;99995.34;5105335;28;20044;-64
2021/05/19 01:01:09;;;;;;;14.10;7.22;;;;;;;8.60;78.66;99996.19;5105267;28;20112;-65
2021/05/19 01:03:36;;;;;;;15.40;6.38;;;;;;;8.57;78.55;99996.22;5105108;28;20031;-66
2021/05/19 01:06:06;;;;;;;14.80;7.78;;;;;;;8.55;78.74;100003.97;5105440;28;20020;-65
2021/05/19 01:11:15;;;;;;;17.73;7.55;;;;;;;8.51;78.49;99997.09;5105353;28;20347;-65
2021/05/19 01:13:45;;;;;;;21.75;7.35;;;;;;;8.53;78.72;99997.94;5120931;28;20023;-64
2021/05/19 01:16:11;;;;;;;12.32;7.10;;;;;;;8.51;78.68;99997.97;5105156;28;20023;-64
2021/05/19 01:18:40;;;;;;;15.10;7.30;;;;;;;8.51;78.86;100002.25;5104736;28;20024;-64
2021/05/19 01:21:06;;;;;;;16.45;7.63;;;;;;;8.55;78.66;100002.25;5105142;28;20028;-64
2021/05/19 01:23:32;;;;;;;13.68;6.40;;;;;;;8.53;78.76;99995.38;5105097;28;20023;-65
2021/05/19 01:25:59;;;;;;;14.43;6.90;;;;;;;8.54;78.58;99991.91;5104922;28;20012;-65
2021/05/19 01:28:25;;;;;;;15.80;6.93;;;;;;;8.54;78.77;99997.06;5104905;28;20031;-65
2021/05/19 01:30:50;;;;;;;18.85;7.43;;;;;;;8.54;78.68;99997.06;5104675;28;20083;-65
2021/05/19 01:33:16;;;;;;;21.60;7.47;;;;;;;8.54;78.42;99997.97;5104285;28;20087;-64
2021/05/19 01:35:42;;;;;;;16.80;6.30;;;;;;;8.51;78.81;99997.09;5103304;28;20457;-65
2021/05/19 01:38:08;;;;;;;17.13;7.32;;;;;;;8.52;78.79;100001.38;5105019;28;20024;-65
2021/05/19 01:40:35;;;;;;;20.20;6.90;;;;;;;8.50;78.80;100000.56;5104651;28;20027;-65
2021/05/19 01:43:01;;;;;;;11.07;6.47;;;;;;;8.48;78.73;99999.69;5104849;28;20050;-65
2021/05/19 01:45:27;;;;;;;19.45;7.32;;;;;;;8.44;78.70;99988.50;5104001;28;20020;-64
2021/05/19 01:47:55;;;;;;;12.55;7.40;;;;;;;8.45;78.72;99997.13;5104600;28;20027;-64
2021/05/19 01:50:24;;;;;;;23.40;7.28;;;;;;;8.44;78.73;99993.69;5104939;28;20107;-64
2021/05/19 01:52:52;;;;;;;24.02;8.10;;;;;;;8.42;78.58;99998.84;5104566;28;20069;-64
2021/05/19 01:55:18;;;;;;;14.35;6.57;;;;;;;8.36;78.72;99993.72;5104818;28;20092;-64
2021/05/19 01:57:46;;;;;;;18.98;6.97;;;;;;;8.29;79.20;99994.63;5104596;28;20048;-64
2021/05/19 02:00:13;;;;;;;13.82;7.53;;;;;;;8.26;79.35;100005.84;5104443;28;20372;-64
2021/05/19 02:02:40;;;;;;;18.85;8.43;;;;;;;8.25;79.34;99996.38;5104051;28;20039;-64
2021/05/19 02:05:06;;;;;;;20.98;8.25;;;;;;;8.24;79.14;99998.97;5104562;28;20023;-64
2021/05/19 02:07:35;;;;;;;21.40;8.45;;;;;;;8.21;79.31;100006.75;5104738;28;20012;-64
2021/05/19 02:10:04;;;;;;;18.60;7.18;;;;;;;8.21;79.17;99999.81;5104309;28;20074;-64
2021/05/19 02:12:29;;;;;;;19.90;7.25;;;;;;;8.15;79.44;100000.72;5104239;28;20028;-64
2021/05/19 02:14:54;;;;;;;16.45;7.68;;;;;;;8.15;79.42;100000.72;5104099;28;20429;-64
2021/05/19 02:17:20;;;;;;;17.80;6.72;;;;;;;8.13;79.57;99999.88;5104317;28;20051;-65
2021/05/19 02:19:45;;;;;;;20.23;7.95;;;;;;;8.12;79.77;99997.28;5104233;28;20426;-65
2021/05/19 02:22:10;;;;;;;24.55;7.80;;;;;;;8.11;79.82;99996.47;5104278;28;20020;-65
2021/05/19 02:24:36;;;;;;;21.70;7.20;;;;;;;8.12;79.66;99999.88;5104140;28;20465;-64
2021/05/19 02:27:01;;;;;;;20.05;7.57;;;;;;;8.11;79.73;99999.03;5104020;28;20020;-64
2021/05/19 02:29:26;;;;;;;13.90;7.47;;;;;;;8.15;79.75;99997.28;5104099;28;20019;-64
2021/05/19 02:31:52;;;;;;;12.32;6.25;;;;;;;8.15;79.78;100005.03;5104104;28;20081;-64
2021/05/19 02:34:17;;;;;;;19.58;8.50;;;;;;;8.18;79.51;100000.72;5103717;28;20487;-64
2021/05/19 02:36:43;;;;;;;14.15;7.45;;;;;;;8.16;79.90;100005.03;5104025;28;20024;-64
2021/05/19 02:39:11;;;;;;;19.08;6.20;;;;;;;8.15;79.97;99998.16;5102442;28;20051;-64
2021/05/19 02:41:38;;;;;;;13.63;6.35;;;;;;;8.12;80.25;100003.34;5103907;28;20055;-64
2021/05/19 02:44:05;;;;;;;18.38;6.40;;;;;;;8.13;80.13;100002.44;5103883;28;20049;-65
2021/05/19 02:46:30;;;;;;;12.73;6.47;;;;;;;8.12;80.04;99995.56;5103619;28;20027;-66
2021/05/19 02:49:01;;;;;;;18.52;7.75;;;;;;;8.11;80.21;100004.22;5103594;28;20051;-65
2021/05/19 02:51:29;;;;;;;15.52;6.28;;;;;;;8.13;80.02;100007.63;5103635;28;20083;-65
2021/05/19 02:53:54;;;;;;;12.48;7.78;;;;;;;8.15;79.88;100010.22;5103742;28;20024;-63
2021/05/19 02:56:19;;;;;;;12.10;6.60;;;;;;;8.15;79.84;100017.97;5103672;28;20075;-63
2021/05/19 02:58:45;;;;;;;15.40;6.95;;;;;;;8.14;79.70;100018.84;5110109;28;20028;-65
2021/05/19 03:01:10;;;;;;;18.13;6.15;;;;;;;8.15;79.86;100024.00;5110611;28;20033;-63
2021/05/19 03:03:35;;;;;;;12.85;5.90;;;;;;;8.14;79.97;100024.88;5110320;28;20096;-63
2021/05/19 03:06:01;;;;;;;12.25;6.65;;;;;;;8.16;80.12;100028.28;5110320;28;20492;-65
2021/05/19 03:08:26;;;;;;;18.40;7.03;;;;;;;8.21;80.30;100024.84;5110475;28;20047;-65
2021/05/19 03:10:51;;;;;;;19.58;7.18;;;;;;;8.23;79.91;100025.69;5110329;28;20020;-65
2021/05/19 03:13:17;;;;;;;17.23;6.38;;;;;;;8.32;80.18;100028.25;5110268;28;20412;-65
2021/05/19 03:15:42;;;;;;;14.27;6.93;;;;;;;8.54;80.33;100025.53;5110118;28;20204;-64
2021/05/19 03:18:07;;;;;;;15.35;7.18;;;;;;;8.75;80.00;100027.16;5110252;28;20020;-65
2021/05/19 03:20:33;;;;;;;13.45;5.70;;;;;;;8.84;79.74;100031.41;5110708;28;20023;-65
2021/05/19 03:22:58;;;;;;;15.25;6.10;;;;;;;8.89;79.27;100015.81;5110320;28;20042;-65
2021/05/19 03:25:24;;;;;;;15.43;6.90;;;;;;;8.99;78.97;100019.22;5110248;28;20116;-64
2021/05/19 03:27:49;;;;;;;13.02;5.65;;;;;;;9.14;79.18;100021.66;5110285;28;20307;-64
2021/05/19 03:30:15;;;;;;;11.10;5.88;;;;;;;9.42;78.95;100029.16;5110315;28;20024;-64
2021/05/19 03:32:42;;;;;;;12.20;6.45;;;;;;;9.77;79.38;100034.00;5110135;28;20074;-65
2021/05/19 03:35:09;;;;;;;15.43;6.20;;;;;;;10.12;78.18;100024.97;5110102;28;20050;-65
2021/05/19 03:37:35;;;;;;;7.28;5.15;;;;;;;10.57;78.28;100026.13;5110290;28;20016;-65
2021/05/19 03:40:04;;;;;;;11.77;5.22;;;;;;;11.05;77.11;100024.53;5109840;28;20046;-65
2021/05/19 03:42:29;;;;;;;9.13;5.30;;;;;;;11.46;75.18;100026.41;5110129;28;20050;-65
2021/05/19 03:44:54;;;;;;;14.00;4.57;;;;;;;11.83;73.46;100024.88;5109992;28;20016;-65
2021/05/19 03:47:20;;;;;;;15.38;5.10;;;;;;;12.09;73.07;100032.16;5110111;28;20488;-65
2021/05/19 03:49:48;;;;;;;9.82;5.00;;;;;;;12.42;72.89;100033.22;5109827;28;20039;-65
2021/05/19 03:52:13;;;;;;;11.27;4.82;;;;;;;12.85;72.41;100031.38;5109798;28;20167;-65
2021/05/19 03:54:40;;;;;;;8.18;4.70;;;;;;;13.09;70.47;100029.06;5109819;28;20028;-64
2021/05/19 03:57:06;;;;;;;8.95;4.82;;;;;;;13.24;69.60;100033.03;5110269;28;20012;-65
2021/05/19 03:59:32;;;;;;;10.90;5.30;;;;;;;13.46;69.03;100042.91;5109951;28;20031;-65
2021/05/19 04:01:57;;;;;;;10.27;4.72;;;;;;;13.56;68.52;100044.38;5109859;28;20031;-65
2021/05/19 04:04:23;;;;;;;14.35;5.88;;;;;;;13.63;65.96;100045.97;5109851;28;20031;-66
2021/05/19 04:06:48;;;;;;;9.95;4.68;;;;;;;13.86;66.43;100041.88;5109966;28;20024;-65
2021/05/19 04:09:14;;;;;;;9.18;4.78;;;;;;;14.19;66.54;100043.53;5107298;28;20046;-65
2021/05/19 04:11:40;;;;;;;10.80;4.47;;;;;;;14.66;65.11;100028.22;5106346;28;20020;-66
2021/05/19 04:14:06;;;;;;;11.13;4.00;;;;;;;14.95;63.38;100048.22;5106676;28;20028;-66
2021/05/19 04:16:31;;;;;;;8.23;3.97;;;;;;;15.42;60.14;100035.34;5107134;28;20102;-65
2021/05/19 04:18:56;;;;;;;8.68;4.53;;;;;;;15.61;58.36;100031.19;5106384;28;20035;-65
2021/05/19 04:21:22;;;;;;;10.85;4.07;;;;;;;15.59;58.41;100037.41;5121981;28;20051;-65
2021/05/19 04:23:47;;;;;;;11.93;4.45;;;;;;;15.86;57.07;100040.78;5105034;28;20020;-65
2021/05/19 04:26:13;;;;;;;6.95;4.10;;;;;;;15.87;55.36;100041.63;5106378;28;20028;-67
2021/05/19 04:28:38;;;;;;;9.88;4.32;;;;;;;16.10;56.30;100037.34;5106212;28;20027;-66
2021/05/19 04:31:05;;;;;;;8.75;3.90;;;;;;;16.54;53.28;100026.06;5106162;28;20020;-66
2021/05/19 04:33:31;;;;;;;8.13;4.00;;;;;;;16.97;52.91;100043.59;5105945;28;20148;-66
2021/05/19 04:35:56;;;;;;;8.88;3.95;;;;;;;17.38;52.02;100042.78;5106110;28;20510;-65
2021/05/19 04:38:22;;;;;;;7.82;3.72;;;;;;;17.47;50.88;100041.56;5105681;28;20063;-65
2021/05/19 04:40:47;;;;;;;8.63;4.20;;;;;;;17.50;50.33;100040.56;5105126;28;20135;-64
2021/05/19 04:43:13;;;;;;;10.73;4.60;;;;;;;17.36;48.99;100039.41;5105444;28;20480;-65
2021/05/19 04:45:39;;;;;;;8.93;3.85;;;;;;;16.90;49.11;100039.53;5105471;28;20020;-64
2021/05/19 04:48:06;;;;;;;9.20;4.15;;;;;;;16.58;50.42;100038.13;5105364;28;20409;-65
2021/05/19 04:50:33;;;;;;;8.40;4.45;;;;;;;16.20;50.39;100043.06;5105010;28;20040;-64
2021/05/19 04:52:59;;;;;;;7.57;4.55;;;;;;;15.90;51.54;100045.88;5105122;28;20067;-65
2021/05/19 04:55:24;;;;;;;10.10;4.22;;;;;;;15.71;51.28;100046.56;5121409;28;20051;-65
2021/05/19 04:57:50;;;;;;;7.38;4.47;;;;;;;15.48;52.60;100043.84;5106187;28;20024;-65
2021/05/19 05:00:16;;;;;;;9.48;4.68;;;;;;;15.64;52.02;100051.16;5105619;28;20097;-65
2021/05/19 05:02:41;;;;;;;7.88;5.07;;;;;;;15.30;51.21;100047.97;5105715;28;20134;-63
2021/05/19 05:05:09;;;;;;;8.20;4.50;;;;;;;14.73;52.62;100059.34;5105822;28;20019;-63
2021/05/19 05:07:34;;;;;;;12.85;4.05;;;;;;;14.49;54.38;100053.09;5105883;28;20049;-63
2021/05/19 05:10:02;;;;;;;7.95;4.18;;;;;;;14.91;55.00;100053.59;5105700;28;20028;-64
2021/05/19 05:12:27;;;;;;;10.80;4.65;;;;;;;15.53;53.54;100054.16;5105826;28;20069;-64
2021/05/19 05:14:53;;;;;;;9.20;3.88;;;;;;;15.70;51.89;100056.16;5105619;28;20012;-63
2021/05/19 05:17:18;;;;;;;9.57;4.78;;;;;;;15.63;51.91;100051.22;5105521;28;20043;-66
2021/05/19 05:19:43;;;;;;;8.32;4.63;;;;;;;15.63;52.85;100049.47;5104960;28;20019;-64
2021/05/19 05:22:09;;;;;;;7.07;4.20;;;;;;;15.63;51.22;100048.59;5103815;28;20050;-64
2021/05/19 05:24:35;;;;;;;7.60;4.32;;;;;;;15.28;52.02;100049.78;5105532;28;20099;-65
2021/05/19 05:27:00;;;;;;;6.18;4.15;;;;;;;15.28;52.83;100054.13;5105295;28;20039;-65
2021/05/19 05:29:26;;;;;;;6.18;3.72;;;;;;;15.59;51.81;100059.16;5104970;28;20028;-65
2021/05/19 05:31:51;;;;;;;6.85;4.20;;;;;;;15.81;52.52;100062.81;5105342;28;20024;-65
2021/05/19 05:34:17;;;;;;;6.13;4.05;;;;;;;16.42;51.18;100063.22;5104963;28;20047;-65
2021/05/19 05:36:42;;;;;;;7.93;3.97;;;;;;;16.70;50.42;100060.38;5105153;28;20553;-65
2021/05/19 05:39:07;;;;;;;12.85;4.40;;;;;;;16.62;50.04;100065.06;5104993;28;20012;-65
2021/05/19 05:41:33;;;;;;;10.05;4.55;;;;;;;16.62;50.00;100065.06;5104987;28;20028;-65
2021/05/19 05:43:58;;;;;;;9.32;4.72;;;;;;;16.21;50.15;100069.19;5104931;28;20031;-65
2021/05/19 05:46:23;;;;;;;11.27;5.25;;;;;;;15.88;50.19;100074.75;5104966;28;20020;-65
2021/05/19 05:48:49;;;;;;;6.55;4.20;;;;;;;15.50;51.40;100077.81;5104816;28;20023;-65
2021/05/19 05:51:14;;;;;;;9.32;4.05;;;;;;;15.46;51.96;100068.38;5104754;28;20066;-65
2021/05/19 05:53:40;;;;;;;9.52;3.85;;;;;;;15.45;52.05;100072.72;5104632;28;20095;-65
2021/05/19 05:56:05;;;;;;;5.50;3.72;;;;;;;15.24;51.33;100074.31;5104567;28;20492;-65
2021/05/19 05:58:30;;;;;;;6.00;4.15;;;;;;;15.01;52.86;100068.09;5104663;28;20051;-65
2021/05/19 06:00:56;;;;;;;6.03;3.63;;;;;;;15.25;53.27;100070.81;5103370;28;20039;-65
2021/05/19 06:03:21;;;;;;;6.45;3.90;;;;;;;15.61;51.85;100064.34;5104310;28;20024;-65
2021/05/19 06:05:47;;;;;;;8.30;4.18;;;;;;;16.02;51.85;100071.69;5104380;28;20476;-65
2021/05/19 06:08:12;;;;;;;6.05;3.65;;;;;;;16.27;50.41;100067.28;5104678;28;20032;-65
2021/05/19 06:10:37;;;;;;;8.90;4.50;;;;;;;16.31;49.93;100072.34;5104558;28;20030;-66
2021/05/19 06:13:03;;;;;;;7.55;3.60;;;;;;;16.51;49.90;100068.09;5104512;28;20111;-65
2021/05/19 06:15:28;;;;;;;8.95;4.50;;;;;;;16.68;49.33;100071.81;5104199;28;20031;-65
2021/05/19 06:17:54;;;;;;;8.70;4.25;;;;;;;16.67;49.17;100083.22;5104228;28;20515;-64
2021/05/19 06:20:19;;;;;;;7.97;4.35;;;;;;;16.58;48.88;100074.81;5104510;28;20036;-66
2021/05/19 06:22:45;;;;;;;6.22;3.60;;;;;;;16.64;48.58;100078.09;5104244;28;20095;-67
2021/05/19 06:25:11;;;;;;;10.52;3.95;;;;;;;16.59;48.45;100076.53;5104088;28;20027;-66
2021/05/19 06:27:37;;;;;;;9.57;4.35;;;;;;;16.58;48.31;100085.28;5104274;28;20020;-65
2021/05/19 06:30:03;;;;;;;8.45;3.90;;;;;;;16.64;48.71;100078.09;5104210;28;20063;-65
2021/05/19 06:32:28;;;;;;;5.30;3.58;;;;;;;16.52;48.05;100077.66;5103959;28;20074;-65
2021/05/19 06:34:54;;;;;;;9.98;4.10;;;;;;;16.26;49.07;100076.91;5104037;28;20443;-65
2021/05/19 06:37:19;;;;;;;6.32;3.67;;;;;;;16.40;49.51;100072.91;5104154;28;20047;-66
2021/05/19 06:39:44;;;;;;;7.45;3.92;;;;;;;16.43;48.58;100076.28;5104082;28;20076;-65
2021/05/19 06:42:10;;;;;;;7.15;3.67;;;;;;;16.41;48.63;100078.09;5103948;28;20024;-66
2021/05/19 06:44:35;;;;;;;10.15;4.05;;;;;;;16.49;48.56;100075.16;5103856;28;20031;-65
2021/05/19 06:47:01;;;;;;;8.98;3.85;;;;;;;16.66;48.14;100078.91;5103896;28;20277;-65
2021/05/19 06:49:26;;;;;;;7.50;4.18;;;;;;;16.70;48.49;100080.47;5103641;28;20054;-64
2021/05/19 06:51:52;;;;;;;10.43;4.32;;;;;;;16.68;47.32;100077.06;5103873;28;20048;-65
2021/05/19 06:54:18;;;;;;;5.90;3.80;;;;;;;16.63;48.51;100079.88;5103669;28;20114;-65
2021/05/19 06:56:44;;;;;;;6.68;4.15;;;;;;;16.76;48.52;100077.63;5103616;28;20020;-65
2021/05/19 06:59:15;;;;;;;6.60;3.72;;;;;;;17.22;47.91;100081.97;5103935;28;20107;-65
2021/05/19 07:01:41;;;;;;;8.82;4.38;;;;;;;17.69;46.59;100082.59;5103679;28;20585;-64
2021/05/19 07:04:06;;;;;;;6.47;3.92;;;;;;;18.11;46.31;100079.91;5119145;28;20020;-65
2021/05/19 07:06:32;;;;;;;6.63;3.97;;;;;;;18.05;45.58;100081.06;5103694;28;20039;-65
2021/05/19 07:08:58;;;;;;;10.02;4.03;;;;;;;17.79;44.91;100077.81;5103720;28;20031;-64
2021/05/19 07:11:23;;;;;;;5.13;3.28;;;;;;;17.61;45.80;100079.47;5102507;28;20024;-65
2021/05/19 07:13:50;;;;;;;6.32;3.60;;;;;;;17.59;45.86;100083.00;5103769;28;20111;-64
2021/05/19 07:16:19;;;;;;;5.72;3.83;;;;;;;17.49;45.43;100076.47;5103489;28;20020;-64
2021/05/19 07:18:45;;;;;;;5.57;3.60;;;;;;;17.06;46.51;100089.56;5103091;28;20107;-65
2021/05/19 07:21:11;;;;;;;5.93;3.83;;;;;;;16.98;46.58;100088.09;5103744;28;20023;-64
2021/05/19 07:23:36;;;;;;;8.23;4.22;;;;;;;16.97;46.41;100086.41;5103539;28;20024;-65
2021/05/19 07:26:01;;;;;;;6.25;3.38;;;;;;;17.12;47.47;100093.72;5103511;28;20235;-65
2021/05/19 07:28:27;;;;;;;7.60;3.60;;;;;;;17.82;47.34;100091.66;5119166;28;20051;-64
2021/05/19 07:30:52;;;;;;;6.18;3.13;;;;;;;18.82;44.33;100097.69;5119067;28;20018;-63
2021/05/19 07:33:17;;;;;;;6.18;4.13;;;;;;;19.18;42.71;100095.13;5103095;28;20024;-63
2021/05/19 07:35:44;;;;;;;5.85;3.00;;;;;;;19.47;42.53;100091.97;5103444;28;20028;-63
2021/05/19 07:38:11;;;;;;;6.50;3.72;;;;;;;19.55;41.19;100087.16;5103425;28;20031;-63
2021/05/19 07:40:37;;;;;;;5.65;3.40;;;;;;;19.77;40.08;100088.69;5103235;28;20079;-65
2021/05/19 07:43:02;;;;;;;5.95;3.63;;;;;;;19.55;41.08;100093.25;5103482;28;20046;-64
2021/05/19 07:45:28;;;;;;;7.97;4.53;;;;;;;19.22;41.14;100090.59;5121769;28;20024;-63
2021/05/19 07:47:54;;;;;;;6.38;3.88;;;;;;;19.31;42.34;100090.94;5107150;28;20077;-64
2021/05/19 07:50:19;;;;;;;9.45;3.63;;;;;;;19.83;40.19;100090.97;5106962;28;20028;-63
2021/05/19 07:52:45;;;;;;;9.40;4.00;;;;;;;19.65;39.89;100085.75;5106739;28;20048;-64
2021/05/19 07:55:21;;;;;;;7.47;3.67;;;;;;;19.36;40.21;100080.19;5107041;28;20456;-63
2021/05/19 08:03:02;;;;;;;4.38;3.00;;;;;;;20.48;37.76;100078.78;5106926;28;20020;-64
2021/05/19 08:05:28;;;;;;;6.07;3.58;;;;;;;20.92;37.88;100086.94;5106681;28;20020;-64
2021/05/19 08:07:53;;;;;;;5.65;3.58;;;;;;;21.43;37.44;100093.69;5122565;28;20031;-64
2021/05/19 08:10:18;;;;;;;6.38;3.33;;;;;;;21.76;35.95;100089.09;5106708;28;20046;-64
2021/05/19 08:12:44;;;;;;;5.57;3.53;;;;;;;21.48;35.37;100082.84;5106673;28;20055;-64
2021/05/19 08:15:10;;;;;;;6.05;3.30;;;;;;;21.16;36.41;100089.09;5106546;28;20024;-63
2021/05/19 08:17:35;;;;;;;4.07;3.00;;;;;;;21.56;36.69;100088.53;5106570;28;20020;-63
2021/05/19 08:20:02;;;;;;;5.93;3.10;;;;;;;22.18;34.81;100089.25;5106268;28;20038;-63
2021/05/19 08:22:28;;;;;;;6.95;2.70;;;;;;;21.91;34.20;100085.59;5106424;28;20395;-64
2021/05/19 08:24:53;;;;;;;3.67;2.95;;;;;;;21.57;33.74;100094.66;5106356;28;20464;-63
2021/05/19 08:27:19;;;;;;;5.32;2.92;;;;;;;20.86;34.77;100092.53;5106541;28;20016;-63
2021/05/19 08:29:45;;;;;;;7.13;3.47;;;;;;;20.42;36.09;100092.28;5106512;28;20023;-63
2021/05/19 08:32:11;;;;;;;8.15;4.28;;;;;;;20.30;36.14;100093.84;5106403;28;20024;-64
2021/05/19 08:34:36;;;;;;;6.05;3.28;;;;;;;19.63;37.55;100089.41;5105882;28;20039;-65
2021/05/19 08:37:02;;;;;;;7.65;3.58;;;;;;;19.05;38.45;100090.47;5106254;28;20027;-64
2021/05/19 08:39:28;;;;;;;6.38;3.60;;;;;;;18.70;38.87;100103.53;5106150;28;20032;-64
2021/05/19 08:41:53;;;;;;;8.05;3.67;;;;;;;18.84;39.05;100092.34;5106190;28;20058;-64
2021/05/19 08:44:20;;;;;;;4.53;3.67;;;;;;;19.59;38.36;100083.44;5105946;28;20433;-64
2021/05/19 08:46:47;;;;;;;5.40;3.33;;;;;;;20.08;37.82;100094.97;5106080;28;20053;-64
2021/05/19 08:49:13;;;;;;;5.75;3.58;;;;;;;20.24;37.55;100088.91;5105669;28;20020;-64
2021/05/19 08:51:39;;;;;;;5.78;3.70;;;;;;;20.72;36.73;100094.16;5105736;28;20039;-64
2021/05/19 08:54:07;;;;;;;4.60;3.20;;;;;;;20.98;35.61;100097.16;5105734;28;20035;-64
2021/05/19 08:56:36;;;;;;;5.15;3.70;;;;;;;21.25;35.35;100096.47;5105829;28;20048;-64
2021/05/19 08:59:02;;;;;;;7.38;3.75;;;;;;;21.59;34.96;100092.78;5106021;28;20051;-64
2021/05/19 09:01:36;;;;;;;5.65;3.42;;;;;;;22.17;33.29;100092.84;5105581;28;20399;-65
2021/05/19 09:04:06;;;;;;;5.28;3.53;;;;;;;22.81;33.10;100094.16;5105414;28;20103;-65
2021/05/19 09:06:31;;;;;;;4.28;2.55;;;;;;;23.43;31.99;100097.19;5105602;28;20016;-65
2021/05/19 09:08:57;;;;;;;4.32;3.03;;;;;;;23.77;31.21;100092.19;5121358;28;20035;-65
2021/05/19 09:11:22;;;;;;;4.03;3.13;;;;;;;23.88;29.78;100096.75;5105458;28;20446;-64
2021/05/19 09:13:48;;;;;;;6.93;3.20;;;;;;;23.50;28.64;100097.59;5105617;28;20042;-64
2021/05/19 09:16:26;;;;;;;6.35;3.60;;;;;;;22.49;29.76;100103.16;5105451;28;20047;-65
2021/05/19 09:18:56;;;;;;;6.22;3.45;;;;;;;21.49;32.12;100114.47;5105308;28;20012;-63
2021/05/19 09:21:39;;;;;;;7.68;3.60;;;;;;;21.37;32.71;100102.84;5105526;28;20024;-64
2021/05/19 09:24:27;;;;;;;6.75;3.55;;;;;;;21.53;33.27;100102.75;5105301;28;20028;-65
2021/05/19 09:26:55;;;;;;;5.70;3.63;;;;;;;22.04;32.96;100106.78;5105430;28;20054;-64
2021/05/19 09:29:24;;;;;;;5.40;2.97;;;;;;;22.67;32.20;100105.59;5105310;28;20020;-64
2021/05/19 09:31:58;;;;;;;6.50;3.25;;;;;;;23.40;30.91;100102.69;5105125;28;20030;-64
2021/05/19 09:34:29;;;;;;;12.32;3.75;;;;;;;23.00;29.92;100107.00;5104877;28;20049;-65
2021/05/19 09:37:13;;;;;;;7.90;3.85;;;;;;;22.10;30.68;100107.38;5105098;28;20028;-64
2021/05/19 09:39:56;;;;;;;5.88;3.28;;;;;;;21.85;32.56;100104.47;5105141;28;20403;-64
2021/05/19 09:42:46;;;;;;;7.80;4.00;;;;;;;21.87;31.88;100109.66;5105153;28;20119;-64
2021/05/19 09:45:22;;;;;;;5.63;3.65;;;;;;;21.58;32.18;100118.31;5105095;28;20458;-64
2021/05/19 09:47:48;;;;;;;6.13;3.83;;;;;;;21.61;33.22;100117.31;5105093;28;20086;-64
2021/05/19 09:50:16;;;;;;;5.38;3.63;;;;;;;21.97;32.39;100107.25;5104761;28;20467;-62
2021/05/19 09:53:03;;;;;;;4.90;3.80;;;;;;;21.96;31.92;100111.72;5120219;28;20135;-64
2021/05/19 09:55:29;;;;;;;5.20;4.00;;;;;;;20.96;33.56;100112.19;5104766;28;20111;-65
2021/05/19 09:57:55;;;;;;;5.95;4.68;;;;;;;20.17;34.79;100120.00;5104704;28;20093;-64
2021/05/19 10:00:23;;;;;;;6.82;4.30;;;;;;;19.43;35.95;100113.19;5104809;28;20024;-64
2021/05/19 10:02:50;;;;;;;5.97;4.38;;;;;;;19.24;36.78;100115.88;5104909;28;20020;-64
2021/05/19 10:05:33;;;;;;;10.93;4.97;;;;;;;18.88;37.00;100116.72;5104267;28;20020;-63
2021/05/19 10:07:58;;;;;;;6.25;4.65;;;;;;;18.31;38.45;100127.19;5103870;28;20066;-64
2021/05/19 10:10:25;;;;;;;6.05;3.55;;;;;;;17.84;39.29;100109.97;5104590;28;20020;-64
2021/05/19 10:12:52;;;;;;;6.75;3.53;;;;;;;18.10;39.85;100121.09;5104497;28;20020;-64
2021/05/19 10:15:23;;;;;;;4.72;3.20;;;;;;;17.89;39.07;100112.41;5104375;28;20016;-63
2021/05/19 10:17:54;;;;;;;10.05;4.65;;;;;;;17.20;40.83;100123.13;5104482;28;20020;-64
2021/05/19 10:20:24;;;;;;;8.40;3.83;;;;;;;17.37;41.65;100113.69;5104259;28;20608;-64
2021/05/19 10:22:50;;;;;;;4.07;3.15;;;;;;;17.84;40.97;100123.09;5104497;28;20032;-64
2021/05/19 10:25:38;;;;;;;7.35;3.95;;;;;;;18.11;40.22;100119.31;5102912;28;20020;-63
2021/05/19 10:28:15;;;;;;;8.98;3.42;;;;;;;18.13;39.28;100122.78;5104598;28;20020;-63
2021/05/19 10:30:55;;;;;;;5.25;3.60;;;;;;;17.50;39.90;100125.41;5104330;28;20384;-63
2021/05/19 10:33:29;;;;;;;6.18;4.03;;;;;;;16.67;41.65;100122.53;5104147;28;20035;-63
2021/05/19 10:36:23;;;;;;;4.75;3.58;;;;;;;16.52;43.32;100126.63;5104116;28;20031;-63
2021/05/19 10:39:12;;;;;;;4.78;3.53;;;;;;;16.29;42.87;100126.56;5104102;28;20016;-63
2021/05/19 10:41:38;;;;;;;5.90;3.95;;;;;;;16.79;42.68;100134.34;5103865;28;20034;-63
2021/05/19 10:44:10;;;;;;;8.27;3.17;;;;;;;17.20;42.13;100112.63;5103627;28;20024;-63
2021/05/19 10:47:04;;;;;;;4.60;3.03;;;;;;;17.43;41.74;100116.91;5103755;28;20019;-62
2021/05/19 10:50:11;;;;;;;5.68;3.28;;;;;;;17.93;41.00;100125.31;5119215;28;20031;-64
2021/05/19 10:58:37;;;;;;;5.53;3.60;;;;;;;16.26;42.25;100131.06;5103795;28;20082;-63
2021/05/19 11:01:06;;;;;;;7.15;3.80;;;;;;;16.19;43.27;100125.19;5103842;28;20362;-63
2021/05/19 11:03:31;;;;;;;3.92;3.05;;;;;;;16.29;43.95;100123.09;5103419;28;20023;-63
2021/05/19 11:05:56;;;;;;;5.32;3.03;;;;;;;16.59;43.93;100130.69;5103441;28;20464;-63
2021/05/19 11:08:29;;;;;;;6.30;4.03;;;;;;;16.79;42.90;100129.09;5103842;28;20024;-63
2021/05/19 11:11:27;;;;;;;6.32;3.50;;;;;;;16.56;43.45;100136.06;5103391;28;20024;-63
2021/05/19 11:14:00;;;;;;;4.18;3.38;;;;;;;16.30;43.18;100133.50;5103633;28;20024;-63
2021/05/19 11:16:43;;;;;;;5.38;3.50;;;;;;;16.12;43.70;100135.00;5103483;28;20107;-63
2021/05/19 11:19:19;;;;;;;6.00;3.03;;;;;;;16.00;44.04;100128.47;5105694;28;20020;-63
2021/05/19 11:21:45;;;;;;;5.43;3.40;;;;;;;16.04;44.16;100135.28;5107588;28;20024;-62
2021/05/19 11:24:13;;;;;;;4.68;3.13;;;;;;;16.00;43.43;100130.22;5107440;28;20028;-63
2021/05/19 11:26:44;;;;;;;6.03;3.58;;;;;;;15.75;44.11;100129.28;5107328;28;20085;-63
2021/05/19 11:29:13;;;;;;;6.55;3.78;;;;;;;15.58;45.00;100135.97;5107385;28;20066;-63
2021/05/19 11:31:45;;;;;;;5.50;4.30;;;;;;;15.51;45.14;100138.84;5107303;28;20047;-63
2021/05/19 11:34:12;;;;;;;5.68;4.05;;;;;;;15.53;45.71;100143.09;5106920;28;20020;-63
2021/05/19 11:36:41;;;;;;;6.75;3.70;;;;;;;15.59;46.24;100134.22;5122883;28;20428;-63
2021/05/19 11:39:28;;;;;;;3.47;2.85;;;;;;;15.82;45.81;100138.66;5107372;28;20038;-63
2021/05/19 11:42:09;;;;;;;4.25;3.15;;;;;;;15.89;44.75;100133.19;5107248;28;20026;-62